createdAt,value
2023-02-04T00:00:24.951Z,92.51
2023-02-04T00:01:24.957Z,92.76
2023-02-04T00:02:24.959Z,92.51
2023-02-04T00:03:24.913Z,92.61
2023-02-04T00:04:24.920Z,92.66
2023-02-04T00:05:24.965Z,92.51
2023-02-04T00:06:24.874Z,93.03
2023-02-04T00:07:24.872Z,92.72
2023-02-04T00:08:24.849Z,93.38
2023-02-04T00:09:31.949Z,93.34
2023-02-04T00:10:24.832Z,93.38
2023-02-04T00:11:24.855Z,93.34
2023-02-04T00:12:24.812Z,93.13
2023-02-04T00:13:24.814Z,93.13
2023-02-04T00:14:24.793Z,93.13
2023-02-04T00:15:24.771Z,93.24
2023-02-04T00:16:24.857Z,93.24
2023-02-04T00:17:24.774Z,93.34
2023-02-04T00:18:24.742Z,93.54
2023-02-04T00:19:24.756Z,93.24
2023-02-04T00:20:24.726Z,93.34
2023-02-04T00:21:24.702Z,93.34
2023-02-04T00:22:24.702Z,93.34
2023-02-04T00:23:24.679Z,93.13
2023-02-04T00:24:24.696Z,93.34
2023-02-04T00:25:24.669Z,93.34
2023-02-04T00:26:24.644Z,93.34
2023-02-04T00:27:24.636Z,93.24
2023-02-04T00:28:24.622Z,93.44
2023-02-04T00:29:24.622Z,93.34
2023-02-04T00:30:24.611Z,93.44
2023-02-04T00:31:24.683Z,93.34
2023-02-04T00:32:24.622Z,93.44
2023-02-04T00:33:24.591Z,93.54
2023-02-04T00:34:24.553Z,93.13
2023-02-04T00:35:24.568Z,93.34
2023-02-04T00:36:24.564Z,93.30
2023-02-04T00:37:24.522Z,93.40
2023-02-04T00:38:24.517Z,93.34
2023-02-04T00:39:24.498Z,93.13
2023-02-04T00:40:24.494Z,93.44
2023-02-04T00:41:24.476Z,93.09
2023-02-04T00:42:24.491Z,93.30
2023-02-04T00:43:24.463Z,93.44
2023-02-04T00:44:24.445Z,93.40
2023-02-04T00:45:24.498Z,93.50
2023-02-04T00:46:24.425Z,93.40
2023-02-04T00:47:24.406Z,93.09
2023-02-04T00:48:26.658Z,93.44
2023-02-04T00:49:24.407Z,93.13
2023-02-04T00:50:24.382Z,93.40
2023-02-04T00:51:24.368Z,93.40
2023-02-04T00:52:24.357Z,93.09
2023-02-04T00:53:24.346Z,93.09
2023-02-04T00:54:24.332Z,93.50
2023-02-04T00:55:24.316Z,93.40
2023-02-04T00:56:24.321Z,93.60
2023-02-04T00:57:24.294Z,93.09
2023-02-04T00:58:24.294Z,93.60
2023-02-04T00:59:24.282Z,93.19
2023-02-04T01:00:24.263Z,93.40
2023-02-04T01:01:24.323Z,93.40
2023-02-04T01:02:24.243Z,93.09
2023-02-04T01:03:24.232Z,93.71
2023-02-04T01:04:24.229Z,93.50
2023-02-04T01:05:24.238Z,93.13
2023-02-04T01:06:24.197Z,93.44
2023-02-04T01:07:24.220Z,93.44
2023-02-04T01:08:24.175Z,93.50
2023-02-04T01:09:24.163Z,93.65
2023-02-04T01:10:24.152Z,93.44
2023-02-04T01:11:24.144Z,93.54
2023-02-04T01:12:24.142Z,93.71
2023-02-04T01:13:24.117Z,93.60
2023-02-04T01:14:24.108Z,93.91
2023-02-04T01:15:24.107Z,94.43
2023-02-04T01:16:24.120Z,94.43
2023-02-04T01:17:24.091Z,94.12
2023-02-04T01:18:24.061Z,94.27
2023-02-04T01:19:24.046Z,94.27
2023-02-04T01:20:24.043Z,94.02
2023-02-04T01:21:24.052Z,94.47
2023-02-04T01:22:24.020Z,94.37
2023-02-04T01:23:24.012Z,94.43
2023-02-04T01:24:23.993Z,94.47
2023-02-04T01:25:23.983Z,94.47
2023-02-04T01:26:23.975Z,94.43
2023-02-04T01:27:23.991Z,94.12
2023-02-04T01:28:23.960Z,94.43
2023-02-04T01:29:23.940Z,94.06
2023-02-04T01:30:23.927Z,94.47
2023-02-04T01:31:23.942Z,93.91
2023-02-04T01:32:23.904Z,94.02
2023-02-04T01:33:23.923Z,94.06
2023-02-04T01:34:23.882Z,94.23
2023-02-04T01:35:23.868Z,94.02
2023-02-04T01:36:23.861Z,94.43
2023-02-04T01:37:23.887Z,94.53
2023-02-04T01:38:23.835Z,94.23
2023-02-04T01:39:23.828Z,94.53
2023-02-04T01:40:23.812Z,94.23
2023-02-04T01:41:23.797Z,94.32
2023-02-04T01:42:23.794Z,94.43
2023-02-04T01:43:23.784Z,94.23
2023-02-04T01:44:23.765Z,94.43
2023-02-04T01:45:23.749Z,94.23
2023-02-04T01:46:23.743Z,93.96
2023-02-04T01:47:23.763Z,94.27
2023-02-04T01:48:23.734Z,94.27
2023-02-04T01:49:23.715Z,94.32
2023-02-04T01:50:23.701Z,94.32
2023-02-04T01:51:23.683Z,94.57
2023-02-04T01:52:23.679Z,94.32
2023-02-04T01:53:23.679Z,94.53
2023-02-04T01:54:23.654Z,94.37
2023-02-04T01:55:23.662Z,94.53
2023-02-04T01:56:23.638Z,94.43
2023-02-04T01:57:23.617Z,94.06
2023-02-04T01:58:23.604Z,94.02
2023-02-04T01:59:23.602Z,94.27
2023-02-04T02:00:23.589Z,94.02
2023-02-04T02:01:23.601Z,94.12
2023-02-04T02:02:23.679Z,94.06
2023-02-04T02:03:23.548Z,93.85
2023-02-04T02:04:23.541Z,94.17
2023-02-04T02:05:23.523Z,94.43
2023-02-04T02:06:23.519Z,94.37
2023-02-04T02:07:23.523Z,94.47
2023-02-04T02:08:23.494Z,94.68
2023-02-04T02:09:23.500Z,94.68
2023-02-04T02:10:23.469Z,94.32
2023-02-04T02:11:23.467Z,94.43
2023-02-04T02:12:23.469Z,94.47
2023-02-04T02:13:23.439Z,94.17
2023-02-04T02:14:23.424Z,94.47
2023-02-04T02:15:23.416Z,94.47
2023-02-04T02:16:23.430Z,94.23
2023-02-04T02:17:23.386Z,94.27
2023-02-04T02:18:23.408Z,94.78
2023-02-04T02:19:23.372Z,94.23
2023-02-04T02:20:23.364Z,94.17
2023-02-04T02:21:23.340Z,94.78
2023-02-04T02:22:23.353Z,94.27
2023-02-04T02:23:23.322Z,94.74
2023-02-04T02:24:23.319Z,94.89
2023-02-04T02:25:23.317Z,94.89
2023-02-04T02:26:23.289Z,94.89
2023-02-04T02:27:23.283Z,94.99
2023-02-04T02:28:23.277Z,94.95
2023-02-04T02:29:23.269Z,95.05
2023-02-04T02:30:23.250Z,94.84
2023-02-04T02:31:23.404Z,94.84
2023-02-04T02:32:23.239Z,94.99
2023-02-04T02:33:23.231Z,94.84
2023-02-04T02:34:23.205Z,94.74
2023-02-04T02:35:23.191Z,94.84
2023-02-04T02:36:23.183Z,94.74
2023-02-04T02:37:23.160Z,94.84
2023-02-04T02:38:23.163Z,94.84
2023-02-04T02:39:23.156Z,94.84
2023-02-04T02:40:23.129Z,94.74
2023-02-04T02:41:23.140Z,94.74
2023-02-04T02:42:23.105Z,94.84
2023-02-04T02:43:23.088Z,95.05
2023-02-04T02:44:23.129Z,94.74
2023-02-04T02:45:23.088Z,94.43
2023-02-04T02:46:23.093Z,94.32
2023-02-04T02:47:23.042Z,94.64
2023-02-04T02:48:23.061Z,94.53
2023-02-04T02:49:23.021Z,94.43
2023-02-04T02:50:23.049Z,94.64
2023-02-04T02:51:23.006Z,94.74
2023-02-04T02:52:23.060Z,94.43
2023-02-04T02:53:22.972Z,94.68
2023-02-04T02:54:22.970Z,94.32
2023-02-04T02:55:22.951Z,94.74
2023-02-04T02:56:22.945Z,94.74
2023-02-04T02:57:22.947Z,94.43
2023-02-04T02:58:22.930Z,94.53
2023-02-04T02:59:22.924Z,94.84
2023-02-04T03:00:22.897Z,94.95
2023-02-04T03:01:22.917Z,94.84
2023-02-04T03:02:22.983Z,94.84
2023-02-04T03:03:22.866Z,94.84
2023-02-04T03:04:22.880Z,95.15
2023-02-04T03:05:22.842Z,94.95
2023-02-04T03:06:22.828Z,94.99
2023-02-04T03:07:22.829Z,94.89
2023-02-04T03:08:22.820Z,94.95
2023-02-04T03:09:22.790Z,94.99
2023-02-04T03:10:22.804Z,94.89
2023-02-04T03:11:22.767Z,94.89
2023-02-04T03:12:22.760Z,94.89
2023-02-04T03:13:22.769Z,94.78
2023-02-04T03:14:22.734Z,95.15
2023-02-04T03:15:22.724Z,94.74
2023-02-04T03:16:22.713Z,94.74
2023-02-04T03:17:22.696Z,94.84
2023-02-04T03:18:22.698Z,94.84
2023-02-04T03:19:22.692Z,94.89
2023-02-04T03:20:22.701Z,94.78
2023-02-04T03:21:22.656Z,94.89
2023-02-04T03:22:22.670Z,94.64
2023-02-04T03:23:22.634Z,95.05
2023-02-04T03:24:22.624Z,95.05
2023-02-04T03:25:22.610Z,94.84
2023-02-04T03:26:22.620Z,94.95
2023-02-04T03:27:22.587Z,94.68
2023-02-04T03:28:22.579Z,95.05
2023-02-04T03:29:22.589Z,94.78
2023-02-04T03:30:22.560Z,95.40
2023-02-04T03:31:22.676Z,95.30
2023-02-04T03:32:22.532Z,95.50
2023-02-04T03:33:22.523Z,95.71
2023-02-04T03:34:22.520Z,95.25
2023-02-04T03:35:22.505Z,95.71
2023-02-04T03:36:22.510Z,95.56
2023-02-04T03:37:22.484Z,95.81
2023-02-04T03:38:22.474Z,96.12
2023-02-04T03:39:22.455Z,94.99
2023-02-04T03:40:22.447Z,95.67
2023-02-04T03:41:22.430Z,96.12
2023-02-04T03:42:22.440Z,95.67
2023-02-04T03:43:22.425Z,95.67
2023-02-04T03:44:22.399Z,95.77
2023-02-04T03:45:22.416Z,95.36
2023-02-04T03:46:22.437Z,95.25
2023-02-04T03:47:22.374Z,95.36
2023-02-04T03:48:22.352Z,94.89
2023-02-04T03:49:22.346Z,94.78
2023-02-04T03:50:22.328Z,94.95
2023-02-04T03:51:22.323Z,95.15
2023-02-04T03:52:22.317Z,94.95
2023-02-04T03:53:22.293Z,95.20
2023-02-04T03:54:22.296Z,94.84
2023-02-04T03:55:22.359Z,95.05
2023-02-04T03:56:22.274Z,94.84
2023-02-04T03:57:22.258Z,95.30
2023-02-04T03:58:22.243Z,95.46
2023-02-04T03:59:22.225Z,95.36
2023-02-04T04:00:22.221Z,95.25
2023-02-04T04:01:22.259Z,95.30
2023-02-04T04:02:22.232Z,95.56
2023-02-04T04:03:22.188Z,95.50
2023-02-04T04:04:22.173Z,95.67
2023-02-04T04:05:22.159Z,96.12
2023-02-04T04:06:22.156Z,95.50
2023-02-04T04:07:22.138Z,95.61
2023-02-04T04:08:22.164Z,95.67
2023-02-04T04:09:22.120Z,95.71
2023-02-04T04:10:22.113Z,95.71
2023-02-04T04:11:22.092Z,95.56
2023-02-04T04:12:22.093Z,95.87
2023-02-04T04:13:22.073Z,95.77
2023-02-04T04:14:22.072Z,95.71
2023-02-04T04:15:22.051Z,95.98
2023-02-04T04:16:22.173Z,95.67
2023-02-04T04:17:22.075Z,95.56
2023-02-04T04:18:22.021Z,95.87
2023-02-04T04:19:22.002Z,95.77
2023-02-04T04:20:22.000Z,95.30
2023-02-04T04:21:21.992Z,95.71
2023-02-04T04:22:21.974Z,95.77
2023-02-04T04:23:21.988Z,95.61
2023-02-04T04:24:21.953Z,95.36
2023-02-04T04:25:21.935Z,95.40
2023-02-04T04:26:21.927Z,95.61
2023-02-04T04:27:21.925Z,95.50
2023-02-04T04:28:21.922Z,95.81
2023-02-04T04:29:21.889Z,95.81
2023-02-04T04:30:21.893Z,95.40
2023-02-04T04:31:21.995Z,94.99
2023-02-04T04:32:21.866Z,95.40
2023-02-04T04:33:21.868Z,95.25
2023-02-04T04:34:21.832Z,94.89
2023-02-04T04:35:21.822Z,95.81
2023-02-04T04:36:21.821Z,95.71
2023-02-04T04:37:21.806Z,95.40
2023-02-04T04:38:21.790Z,95.98
2023-02-04T04:39:21.771Z,95.25
2023-02-04T04:40:21.767Z,95.30
2023-02-04T04:41:21.748Z,95.81
2023-02-04T04:42:21.751Z,96.28
2023-02-04T04:43:21.725Z,95.25
2023-02-04T04:44:21.729Z,95.98
2023-02-04T04:45:21.701Z,95.92
2023-02-04T04:46:21.792Z,96.02
2023-02-04T04:47:21.685Z,95.20
2023-02-04T04:48:21.674Z,96.33
2023-02-04T04:49:21.681Z,96.23
2023-02-04T04:50:21.662Z,95.20
2023-02-04T04:51:21.632Z,95.30
2023-02-04T04:52:21.632Z,95.50
2023-02-04T04:53:21.611Z,95.71
2023-02-04T04:54:21.600Z,95.61
2023-02-04T04:55:21.612Z,95.81
2023-02-04T04:56:21.573Z,96.02
2023-02-04T04:57:21.575Z,95.92
2023-02-04T04:58:21.558Z,96.12
2023-02-04T04:59:21.571Z,96.23
2023-02-04T05:00:21.544Z,96.02
2023-02-04T05:01:21.575Z,95.92
2023-02-04T05:02:21.509Z,96.53
2023-02-04T05:03:21.512Z,96.44
2023-02-04T05:04:21.547Z,96.33
2023-02-04T05:05:21.512Z,96.12
2023-02-04T05:06:21.464Z,96.44
2023-02-04T05:07:21.459Z,96.12
2023-02-04T05:08:21.539Z,96.02
2023-02-04T05:09:21.443Z,96.02
2023-02-04T05:10:21.419Z,95.81
2023-02-04T05:11:21.416Z,96.02
2023-02-04T05:12:21.402Z,96.02
2023-02-04T05:13:21.406Z,96.02
2023-02-04T05:14:21.392Z,96.12
2023-02-04T05:15:21.368Z,96.23
2023-02-04T05:16:21.423Z,96.12
2023-02-04T05:17:21.345Z,96.23
2023-02-04T05:18:21.339Z,95.81
2023-02-04T05:19:21.334Z,95.81
2023-02-04T05:20:21.322Z,96.02
2023-02-04T05:21:21.320Z,95.61
2023-02-04T05:22:21.288Z,95.98
2023-02-04T05:23:21.280Z,95.71
2023-02-04T05:24:21.279Z,96.23
2023-02-04T05:25:21.274Z,95.71
2023-02-04T05:26:29.937Z,95.81
2023-02-04T05:27:22.238Z,95.50
2023-02-04T05:28:21.219Z,96.02
2023-02-04T05:29:21.220Z,95.61
2023-02-04T05:30:21.196Z,96.23
2023-02-04T05:31:21.293Z,96.12
2023-02-04T05:32:21.182Z,96.12
2023-02-04T05:33:21.193Z,96.23
2023-02-04T05:34:21.154Z,96.23
2023-02-04T05:35:21.150Z,96.53
2023-02-04T05:36:21.127Z,96.44
2023-02-04T05:37:21.145Z,96.64
2023-02-04T05:38:21.113Z,96.64
2023-02-04T05:39:21.095Z,96.39
2023-02-04T05:40:21.096Z,96.33
2023-02-04T05:41:21.086Z,96.64
2023-02-04T05:42:21.057Z,96.64
2023-02-04T05:43:21.077Z,96.74
2023-02-04T05:44:21.034Z,96.74
2023-02-04T05:45:21.026Z,96.64
2023-02-04T05:46:21.068Z,96.74
2023-02-04T05:47:21.007Z,96.12
2023-02-04T05:48:20.993Z,96.53
2023-02-04T05:49:20.991Z,96.44
2023-02-04T05:50:20.973Z,96.64
2023-02-04T05:51:20.958Z,96.49
2023-02-04T05:52:20.956Z,96.53
2023-02-04T05:53:20.954Z,96.33
2023-02-04T05:54:20.935Z,96.33
2023-02-04T05:55:20.916Z,96.44
2023-02-04T05:56:20.901Z,96.02
2023-02-04T05:57:20.904Z,96.23
2023-02-04T05:58:20.897Z,96.33
2023-02-04T05:59:20.870Z,96.02
2023-02-04T06:00:20.853Z,96.74
2023-02-04T06:01:20.860Z,96.64
2023-02-04T06:02:20.843Z,96.64
2023-02-04T06:03:20.858Z,96.12
2023-02-04T06:04:20.826Z,96.44
2023-02-04T06:05:20.817Z,96.64
2023-02-04T06:06:20.792Z,96.44
2023-02-04T06:07:20.786Z,96.64
2023-02-04T06:08:20.774Z,96.95
2023-02-04T06:09:20.774Z,96.64
2023-02-04T06:10:27.851Z,96.44
2023-02-04T06:11:20.727Z,96.49
2023-02-04T06:12:20.712Z,96.91
2023-02-04T06:13:20.719Z,96.74
2023-02-04T06:14:20.725Z,96.91
2023-02-04T06:15:20.696Z,96.39
2023-02-04T06:16:20.703Z,96.28
2023-02-04T06:17:20.689Z,97.01
2023-02-04T06:18:20.667Z,97.01
2023-02-04T06:19:20.646Z,96.95
2023-02-04T06:20:20.639Z,96.91
2023-02-04T06:21:20.625Z,96.44
2023-02-04T06:22:20.628Z,96.39
2023-02-04T06:23:20.598Z,96.84
2023-02-04T06:24:20.585Z,96.70
2023-02-04T06:25:20.594Z,96.70
2023-02-04T06:26:20.563Z,96.39
2023-02-04T06:27:20.585Z,96.95
2023-02-04T06:28:20.586Z,96.70
2023-02-04T06:29:20.526Z,96.44
2023-02-04T06:30:20.520Z,97.16
2023-02-04T06:31:20.619Z,97.01
2023-02-04T06:32:20.504Z,96.95
2023-02-04T06:33:20.489Z,96.84
2023-02-04T06:34:20.472Z,96.91
2023-02-04T06:35:20.459Z,96.80
2023-02-04T06:36:20.447Z,96.49
2023-02-04T06:37:20.463Z,96.49
2023-02-04T06:38:20.431Z,96.53
2023-02-04T06:39:20.427Z,96.53
2023-02-04T06:40:20.406Z,96.49
2023-02-04T06:41:20.433Z,96.91
2023-02-04T06:42:20.373Z,96.64
2023-02-04T06:43:20.382Z,96.80
2023-02-04T06:44:20.361Z,96.70
2023-02-04T06:45:20.344Z,96.64
2023-02-04T06:46:20.417Z,96.70
2023-02-04T06:47:20.332Z,96.59
2023-02-04T06:48:20.304Z,96.70
2023-02-04T06:49:20.361Z,96.64
2023-02-04T06:50:20.311Z,96.70
2023-02-04T06:51:20.286Z,96.59
2023-02-04T06:52:20.267Z,96.74
2023-02-04T06:53:20.249Z,96.74
2023-02-04T06:54:20.245Z,96.59
2023-02-04T06:55:20.242Z,96.84
2023-02-04T06:56:20.221Z,96.59
2023-02-04T06:57:20.233Z,96.70
2023-02-04T06:58:20.198Z,96.95
2023-02-04T06:59:20.186Z,96.64
2023-02-04T07:00:20.180Z,96.84
2023-02-04T07:01:20.186Z,96.80
2023-02-04T07:02:20.194Z,96.80
2023-02-04T07:03:20.147Z,96.64
2023-02-04T07:04:20.137Z,96.84
2023-02-04T07:05:20.122Z,96.80
2023-02-04T07:06:20.113Z,96.64
2023-02-04T07:07:20.096Z,96.64
2023-02-04T07:08:20.079Z,96.70
2023-02-04T07:09:20.072Z,96.64
2023-02-04T07:10:20.068Z,96.74
2023-02-04T07:11:20.066Z,96.59
2023-02-04T07:12:20.041Z,96.59
2023-02-04T07:13:20.049Z,96.84
2023-02-04T07:14:20.013Z,96.84
2023-02-04T07:15:20.014Z,96.70
2023-02-04T07:16:19.993Z,96.74
2023-02-04T07:17:19.997Z,96.84
2023-02-04T07:18:20.032Z,96.95
2023-02-04T07:19:21.223Z,96.64
2023-02-04T07:20:19.948Z,96.64
2023-02-04T07:21:19.945Z,96.64
2023-02-04T07:22:19.945Z,96.74
2023-02-04T07:23:19.935Z,96.84
2023-02-04T07:24:19.904Z,96.84
2023-02-04T07:25:19.890Z,96.74
2023-02-04T07:26:19.890Z,96.95
2023-02-04T07:27:19.868Z,96.95
2023-02-04T07:28:19.876Z,96.59
2023-02-04T07:29:25.119Z,96.64
2023-02-04T07:30:20.832Z,96.80
2023-02-04T07:31:19.970Z,97.05
2023-02-04T07:32:19.813Z,96.91
2023-02-04T07:33:19.816Z,96.64
2023-02-04T07:34:19.806Z,96.80
2023-02-04T07:35:19.782Z,96.74
2023-02-04T07:36:19.761Z,96.84
2023-02-04T07:37:19.768Z,96.59
2023-02-04T07:38:19.738Z,96.74
2023-02-04T07:39:19.740Z,96.84
2023-02-04T07:40:19.713Z,96.80
2023-02-04T07:41:19.706Z,96.80
2023-02-04T07:42:19.701Z,96.70
2023-02-04T07:43:19.690Z,96.59
2023-02-04T07:44:19.690Z,96.70
2023-02-04T07:45:19.683Z,96.80
2023-02-04T07:46:19.668Z,96.70
2023-02-04T07:47:19.632Z,96.59
2023-02-04T07:48:19.629Z,96.80
2023-02-04T07:49:19.609Z,96.80
2023-02-04T07:50:19.600Z,96.91
2023-02-04T07:51:19.585Z,96.59
2023-02-04T07:52:19.578Z,97.11
2023-02-04T07:53:19.572Z,96.91
2023-02-04T07:54:19.547Z,96.49
2023-02-04T07:55:19.552Z,96.70
2023-02-04T07:56:19.527Z,97.06
2023-02-04T07:57:20.483Z,97.11
2023-02-04T07:58:19.518Z,97.01
2023-02-04T07:59:19.499Z,96.59
2023-02-04T08:00:19.483Z,97.01
2023-02-04T08:01:19.562Z,96.59
2023-02-04T08:02:19.458Z,96.70
2023-02-04T08:03:19.451Z,96.59
2023-02-04T08:04:19.436Z,96.80
2023-02-04T08:05:19.421Z,96.80
2023-02-04T08:06:19.414Z,96.80
2023-02-04T08:07:19.406Z,96.91
2023-02-04T08:08:19.386Z,97.01
2023-02-04T08:09:19.377Z,96.91
2023-02-04T08:10:19.374Z,96.59
2023-02-04T08:11:19.363Z,97.01
2023-02-04T08:12:19.354Z,97.21
2023-02-04T08:13:19.339Z,97.11
2023-02-04T08:14:19.313Z,96.59
2023-02-04T08:15:19.316Z,96.70
2023-02-04T08:16:19.353Z,97.11
2023-02-04T08:17:19.302Z,96.80
2023-02-04T08:18:19.268Z,96.80
2023-02-04T08:19:19.286Z,96.70
2023-02-04T08:20:19.256Z,97.01
2023-02-04T08:21:19.634Z,96.91
2023-02-04T08:22:19.235Z,96.59
2023-02-04T08:23:19.227Z,96.91
2023-02-04T08:24:19.200Z,97.01
2023-02-04T08:25:19.190Z,97.01
2023-02-04T08:26:19.190Z,96.80
2023-02-04T08:27:19.174Z,96.80
2023-02-04T08:28:19.285Z,97.01
2023-02-04T08:29:19.141Z,97.01
2023-02-04T08:30:19.135Z,96.80
2023-02-04T08:31:19.263Z,96.70
2023-02-04T08:32:19.119Z,96.70
2023-02-04T08:33:19.120Z,96.70
2023-02-04T08:34:19.092Z,96.66
2023-02-04T08:35:19.080Z,96.70
2023-02-04T08:36:19.068Z,96.91
2023-02-04T08:37:19.054Z,96.86
2023-02-04T08:38:19.041Z,96.55
2023-02-04T08:39:19.038Z,96.75
2023-02-04T08:40:20.443Z,96.66
2023-02-04T08:41:19.006Z,96.75
2023-02-04T08:42:18.993Z,97.01
2023-02-04T08:43:18.997Z,96.39
2023-02-04T08:44:18.970Z,96.80
2023-02-04T08:45:18.972Z,96.28
2023-02-04T08:46:19.045Z,96.08
2023-02-04T08:47:18.950Z,96.03
2023-02-04T08:48:18.934Z,96.24
2023-02-04T08:49:18.946Z,96.24
2023-02-04T08:50:18.927Z,96.34
2023-02-04T08:51:18.917Z,96.66
2023-02-04T08:52:18.895Z,96.14
2023-02-04T08:53:18.897Z,95.73
2023-02-04T08:54:18.874Z,96.14
2023-02-04T08:55:18.876Z,95.93
2023-02-04T08:56:18.877Z,96.14
2023-02-04T08:57:18.856Z,95.21
2023-02-04T08:58:18.833Z,96.24
2023-02-04T08:59:18.827Z,95.83
2023-02-04T09:00:18.849Z,96.03
2023-02-04T09:01:18.921Z,95.00
2023-02-04T09:02:18.844Z,94.49
2023-02-04T09:03:18.782Z,94.38
2023-02-04T09:04:18.767Z,93.77
2023-02-04T09:05:18.797Z,93.98
2023-02-04T09:06:18.746Z,94.08
2023-02-04T09:07:18.752Z,94.38
2023-02-04T09:08:18.729Z,94.28
2023-02-04T09:09:20.051Z,94.08
2023-02-04T09:10:18.706Z,93.21
2023-02-04T09:11:18.706Z,93.35
2023-02-04T09:12:18.685Z,93.35
2023-02-04T09:13:18.676Z,93.25
2023-02-04T09:14:18.681Z,93.25
2023-02-04T09:15:18.648Z,93.25
2023-02-04T09:16:18.753Z,92.43
2023-02-04T09:17:18.624Z,92.63
2023-02-04T09:18:18.618Z,92.53
2023-02-04T09:19:18.622Z,92.38
2023-02-04T09:20:18.595Z,92.69
2023-02-04T09:21:18.606Z,92.80
2023-02-04T09:22:18.592Z,92.02
2023-02-04T09:23:18.559Z,92.22
2023-02-04T09:24:18.592Z,92.02
2023-02-04T09:25:18.556Z,92.22
2023-02-04T09:26:18.529Z,92.02
2023-02-04T09:27:18.516Z,91.87
2023-02-04T09:28:18.578Z,92.08
2023-02-04T09:29:18.511Z,92.22
2023-02-04T09:30:18.495Z,92.33
2023-02-04T09:31:18.590Z,92.02
2023-02-04T09:32:18.463Z,92.12
2023-02-04T09:33:18.446Z,92.08
2023-02-04T09:34:18.438Z,91.97
2023-02-04T09:35:18.434Z,91.97
2023-02-04T09:36:18.429Z,91.60
2023-02-04T09:37:18.434Z,91.77
2023-02-04T09:38:18.402Z,91.30
2023-02-04T09:39:18.382Z,90.99
2023-02-04T09:40:18.387Z,91.40
2023-02-04T09:41:18.387Z,90.67
2023-02-04T09:42:18.350Z,91.19
2023-02-04T09:43:18.359Z,90.78
2023-02-04T09:44:18.335Z,90.99
2023-02-04T09:45:18.354Z,91.05
2023-02-04T09:46:18.321Z,90.73
2023-02-04T09:47:18.323Z,90.64
2023-02-04T09:48:18.292Z,90.84
2023-02-04T09:49:18.303Z,90.43
2023-02-04T09:50:18.264Z,90.33
2023-02-04T09:51:18.254Z,90.01
2023-02-04T09:52:18.339Z,90.01
2023-02-04T09:53:18.248Z,89.87
2023-02-04T09:54:18.220Z,89.87
2023-02-04T09:55:18.207Z,89.50
2023-02-04T09:56:18.192Z,89.50
2023-02-04T09:57:18.276Z,89.50
2023-02-04T09:58:18.173Z,89.15
2023-02-04T09:59:18.153Z,88.99
2023-02-04T10:00:18.138Z,89.15
2023-02-04T10:01:18.172Z,89.46
2023-02-04T10:02:18.114Z,88.89
2023-02-04T10:03:18.151Z,88.26
2023-02-04T10:04:18.083Z,88.26
2023-02-04T10:05:18.066Z,87.96
2023-02-04T10:06:18.061Z,88.26
2023-02-04T10:07:18.077Z,88.26
2023-02-04T10:08:18.045Z,88.26
2023-02-04T10:09:18.054Z,87.96
2023-02-04T10:10:18.012Z,88.62
2023-02-04T10:11:17.997Z,88.89
2023-02-04T10:12:17.997Z,88.99
2023-02-04T10:13:17.991Z,88.99
2023-02-04T10:14:17.962Z,88.99
2023-02-04T10:15:17.950Z,89.19
2023-02-04T10:16:17.963Z,88.37
2023-02-04T10:17:17.935Z,87.85
2023-02-04T10:18:17.940Z,87.75
2023-02-04T10:19:17.904Z,87.65
2023-02-04T10:20:17.902Z,87.85
2023-02-04T10:21:17.890Z,87.24
2023-02-04T10:22:17.872Z,87.13
2023-02-04T10:23:17.861Z,86.97
2023-02-04T10:24:17.860Z,87.59
2023-02-04T10:25:17.869Z,87.24
2023-02-04T10:26:17.828Z,87.48
2023-02-04T10:27:17.837Z,87.79
2023-02-04T10:28:17.981Z,88.26
2023-02-04T10:29:17.790Z,88.37
2023-02-04T10:30:17.783Z,88.37
2023-02-04T10:31:17.907Z,88.47
2023-02-04T10:32:17.766Z,87.75
2023-02-04T10:33:17.756Z,87.71
2023-02-04T10:34:19.012Z,87.96
2023-02-04T10:35:17.724Z,87.44
2023-02-04T10:36:17.722Z,86.72
2023-02-04T10:37:17.702Z,86.00
2023-02-04T10:38:17.717Z,86.21
2023-02-04T10:39:17.682Z,86.93
2023-02-04T10:40:17.675Z,85.89
2023-02-04T10:41:17.702Z,86.45
2023-02-04T10:42:17.657Z,86.66
2023-02-04T10:43:17.638Z,86.52
2023-02-04T10:44:17.653Z,86.82
2023-02-04T10:45:17.610Z,85.94
2023-02-04T10:46:17.644Z,86.35
2023-02-04T10:47:17.596Z,86.61
2023-02-04T10:48:17.586Z,86.93
2023-02-04T10:49:17.566Z,87.03
2023-02-04T10:50:17.565Z,87.07
2023-02-04T10:51:17.557Z,86.72
2023-02-04T10:52:17.534Z,86.93
2023-02-04T10:53:17.533Z,86.82
2023-02-04T10:54:17.547Z,86.88
2023-02-04T10:55:17.500Z,86.82
2023-02-04T10:56:17.490Z,86.31
2023-02-04T10:57:17.506Z,87.03
2023-02-04T10:58:17.467Z,86.10
2023-02-04T10:59:17.453Z,86.52
2023-02-04T11:00:17.465Z,86.47
2023-02-04T11:01:17.506Z,85.69
2023-02-04T11:02:17.452Z,85.89
2023-02-04T11:03:17.460Z,86.61
2023-02-04T11:04:17.401Z,86.16
2023-02-04T11:05:17.400Z,86.68
2023-02-04T11:06:17.389Z,85.65
2023-02-04T11:07:17.375Z,85.55
2023-02-04T11:08:17.360Z,84.52
2023-02-04T11:09:17.340Z,84.62
2023-02-04T11:10:17.434Z,84.31
2023-02-04T11:11:17.326Z,84.52
2023-02-04T11:12:17.319Z,85.14
2023-02-04T11:13:17.327Z,85.24
2023-02-04T11:14:17.290Z,85.24
2023-02-04T11:15:17.276Z,85.14
2023-02-04T11:16:17.357Z,85.14
2023-02-04T11:17:17.251Z,85.44
2023-02-04T11:18:17.246Z,85.41
2023-02-04T11:19:17.241Z,85.24
2023-02-04T11:20:17.331Z,85.51
2023-02-04T11:21:19.215Z,85.44
2023-02-04T11:22:17.195Z,84.62
2023-02-04T11:23:17.181Z,84.48
2023-02-04T11:24:17.193Z,84.93
2023-02-04T11:25:17.171Z,85.03
2023-02-04T11:26:17.175Z,84.93
2023-02-04T11:27:17.136Z,84.21
2023-02-04T11:28:17.252Z,83.80
2023-02-04T11:29:17.141Z,84.52
2023-02-04T11:30:17.105Z,84.72
2023-02-04T11:31:17.210Z,84.62
2023-02-04T11:32:17.083Z,84.27
2023-02-04T11:33:17.068Z,84.99
2023-02-04T11:34:17.055Z,84.89
2023-02-04T11:35:17.049Z,84.89
2023-02-04T11:36:17.044Z,84.79
2023-02-04T11:37:17.042Z,84.79
2023-02-04T11:38:17.013Z,84.62
2023-02-04T11:39:16.995Z,84.69
2023-02-04T11:40:16.993Z,83.97
2023-02-04T11:41:16.984Z,84.48
2023-02-04T11:42:16.985Z,83.86
2023-02-04T11:43:16.959Z,83.86
2023-02-04T11:44:16.949Z,83.76
2023-02-04T11:45:16.951Z,83.04
2023-02-04T11:46:17.019Z,83.55
2023-02-04T11:47:16.908Z,83.39
2023-02-04T11:48:16.896Z,82.97
2023-02-04T11:49:16.880Z,83.39
2023-02-04T11:50:16.877Z,82.97
2023-02-04T11:51:16.867Z,83.07
2023-02-04T11:52:16.868Z,83.65
2023-02-04T11:53:16.838Z,84.17
2023-02-04T11:54:16.826Z,84.93
2023-02-04T11:55:16.829Z,84.58
2023-02-04T11:56:16.811Z,85.20
2023-02-04T11:57:16.796Z,85.20
2023-02-04T11:58:16.821Z,84.17
2023-02-04T11:59:16.767Z,83.45
2023-02-04T12:00:16.754Z,82.93
2023-02-04T12:01:16.766Z,83.14
2023-02-04T12:02:16.845Z,84.07
2023-02-04T12:03:16.723Z,84.27
2023-02-04T12:04:16.714Z,83.86
2023-02-04T12:05:16.714Z,84.23
2023-02-04T12:06:16.701Z,84.13
2023-02-04T12:07:16.677Z,84.13
2023-02-04T12:08:16.677Z,84.13
2023-02-04T12:09:16.654Z,84.23
2023-02-04T12:10:16.652Z,84.03
2023-02-04T12:11:16.643Z,84.07
2023-02-04T12:12:16.622Z,84.54
2023-02-04T12:13:16.624Z,84.54
2023-02-04T12:14:16.604Z,84.44
2023-02-04T12:15:16.587Z,84.03
2023-02-04T12:16:16.647Z,83.86
2023-02-04T12:17:16.589Z,83.11
2023-02-04T12:18:16.594Z,83.31
2023-02-04T12:19:16.539Z,83.20
2023-02-04T12:20:16.534Z,83.00
2023-02-04T12:21:16.520Z,83.83
2023-02-04T12:22:16.514Z,83.41
2023-02-04T12:23:16.519Z,83.51
2023-02-04T12:24:16.484Z,82.79
2023-02-04T12:25:16.476Z,82.59
2023-02-04T12:26:16.465Z,83.41
2023-02-04T12:27:16.456Z,82.69
2023-02-04T12:28:16.549Z,83.11
2023-02-04T12:29:16.432Z,82.79
2023-02-04T12:30:16.418Z,82.39
2023-02-04T12:31:16.481Z,83.11
2023-02-04T12:32:16.392Z,81.87
2023-02-04T12:33:16.401Z,81.97
2023-02-04T12:34:16.382Z,83.11
2023-02-04T12:35:16.353Z,83.31
2023-02-04T12:36:16.348Z,83.11
2023-02-04T12:37:16.332Z,83.31
2023-02-04T12:38:16.345Z,83.17
2023-02-04T12:39:16.315Z,83.27
2023-02-04T12:40:16.299Z,82.55
2023-02-04T12:41:16.288Z,81.97
2023-02-04T12:42:16.277Z,81.87
2023-02-04T12:43:16.269Z,81.46
2023-02-04T12:44:16.270Z,81.91
2023-02-04T12:45:16.281Z,81.87
2023-02-04T12:46:16.289Z,82.39
2023-02-04T12:47:16.219Z,82.18
2023-02-04T12:48:16.269Z,82.18
2023-02-04T12:49:16.235Z,82.48
2023-02-04T12:50:16.212Z,82.28
2023-02-04T12:51:16.168Z,82.48
2023-02-04T12:52:16.163Z,82.69